FQMA/MPM METAR and TAF weather

Enter ICAO airport designator
Station Type Date Time Source
FQMA METAR 2018/12/10 20:00 UTC NOAA

FQMA 102000Z 24015KT 9999 SCT015 OVC020 20/18 Q1019 NOSIG


Station Type Date Time Source
FQMA Decoded METAR 2018/12/10 20:00 UTC NOAA

Maputo / Mavalane, Mozambique (FQMA) 25-55S 032-34E 44M
Dec 10, 2018 - 03:00 PM EST / 2018.12.10 2000 UTC
Wind: from the WSW (240 degrees) at 17 MPH (15 KT):0
Visibility: greater than 7 mile(s):0
Sky conditions: overcast
Temperature: 68 F (20 C)
Dew Point: 64 F (18 C)
Relative Humidity: 88%
Pressure (altimeter): 30.09 in. Hg (1019 hPa)
ob: FQMA 102000Z 24015KT 9999 SCT015 OVC020 20/18 Q1019 NOSIG
cycle: 20

Station Type Date Time Source
FQMA TAF 2018/12/10 18:42 UTC NOAA

TAF FQMA 101600Z 1018/1124 17017KT 9999 BKN020
BECMG 1100/1102 23014KT
BECMG 1106/1108 17015KT
BECMG 1112/1114 11010KT SCT025
BECMG 1119/1121 23008KT TX27/1113Z TN20/1103Z


Example: see airport list